Time;durP1;ratioP1;P1;durP2;ratioP2;P2;SDS_P1;SDS_P2;PMS_P1;PMS_P2;Temp;Humidity;BMP_temperature;BMP_pressure;BME280_temperature;BME280_humidity;BME280_pressure;Samples;Min_cycle;Max_cycle;Signal;HPM_P1;HPM_P2
2021/09/17 00:01:34;;;;;;;12.75;5.38;;;640.60;1843.20;;;;;;5074553;28;20423;-78
2021/09/17 00:04:00;;;;;;;14.23;5.82;;;640.60;1843.20;;;;;;5076891;28;20021;-77
2021/09/17 00:06:26;;;;;;;13.70;5.07;;;640.60;1843.20;;;;;;5074599;28;20031;-78
2021/09/17 00:08:51;;;;;;;13.48;4.65;;;640.60;1843.20;;;;;;5057499;28;20021;-77
2021/09/17 00:11:18;;;;;;;14.50;5.25;;;640.60;1868.80;;;;;;5058357;28;20064;-78
2021/09/17 00:13:43;;;;;;;17.33;5.97;;;640.60;1868.80;;;;;;5075505;28;20448;-77
2021/09/17 00:16:10;;;;;;;18.40;5.63;;;640.60;1868.80;;;;;;5074601;28;20020;-77
2021/09/17 00:18:36;;;;;;;11.45;4.28;;;640.50;1894.40;;;;;;5073917;28;20044;-77
2021/09/17 00:21:02;;;;;;;17.85;6.60;;;640.40;1868.80;;;;;;5073798;28;20068;-78
2021/09/17 00:23:28;;;;;;;11.35;5.55;;;640.40;1894.40;;;;;;5076461;28;20013;-77
2021/09/17 00:25:53;;;;;;;14.23;5.50;;;640.30;1971.20;;;;;;5075071;28;20032;-77
2021/09/17 00:28:19;;;;;;;14.55;5.93;;;640.10;1945.60;;;;;;5073843;28;20012;-77
2021/09/17 00:30:45;;;;;;;13.27;4.78;;;640.00;1945.60;;;;;;5073820;28;20024;-77
2021/09/17 00:33:11;;;;;;;17.40;6.05;;;640.00;1971.20;;;;;;5073927;28;20354;-78
2021/09/17 00:35:36;;;;;;;19.65;6.60;;;640.00;1971.20;;;;;;5074146;28;20378;-77
2021/09/17 00:38:04;;;;;;;13.23;6.00;;;640.00;1996.80;;;;;;5073514;28;20024;-78
2021/09/17 00:40:30;;;;;;;19.92;5.68;;;640.00;2022.40;;;;;;5073273;28;20111;-77
2021/09/17 00:42:56;;;;;;;14.13;5.85;;;640.00;1996.80;;;;;;5073354;28;20017;-78
2021/09/17 00:45:22;;;;;;;19.02;7.18;;;615.30;2022.40;;;;;;5073384;28;20500;-77
2021/09/17 00:47:48;;;;;;;11.02;5.72;;;615.30;2022.40;;;;;;5073572;28;20012;-78
2021/09/17 00:50:17;;;;;;;17.42;6.07;;;615.30;2073.60;;;;;;5073328;28;20027;-81
2021/09/17 00:52:44;;;;;;;17.65;6.45;;;615.20;2099.20;;;;;;5073056;28;20024;-78
2021/09/17 00:55:10;;;;;;;16.13;6.43;;;615.30;2124.80;;;;;;5072761;28;20041;-78
2021/09/17 00:57:37;;;;;;;16.33;7.25;;;615.20;2150.40;;;;;;5073295;28;20040;-76
2021/09/17 01:00:09;;;;;;;17.45;7.32;;;615.20;2176.00;;;;;;5073237;28;20064;-76
2021/09/17 01:02:35;;;;;;;14.07;5.72;;;615.20;2176.00;;;;;;5054953;28;20120;-77
2021/09/17 01:05:00;;;;;;;18.90;7.63;;;615.20;2124.80;;;;;;5073471;28;20104;-76
2021/09/17 01:07:26;;;;;;;13.77;6.82;;;615.00;2176.00;;;;;;5072993;28;20579;-77
2021/09/17 01:09:53;;;;;;;18.58;7.00;;;614.90;2252.80;;;;;;5073290;28;20099;-78
2021/09/17 01:12:20;;;;;;;17.95;6.88;;;614.90;2304.00;;;;;;5072990;28;20021;-77
2021/09/17 01:14:46;;;;;;;14.50;6.40;;;614.80;2278.40;;;;;;5073312;28;20024;-76
2021/09/17 01:17:12;;;;;;;13.45;6.45;;;614.80;2355.20;;;;;;5073142;28;20028;-76
2021/09/17 01:19:38;;;;;;;21.23;7.22;;;614.80;2380.80;;;;;;5073214;28;20029;-76
2021/09/17 01:22:09;;;;;;;19.80;8.27;;;614.80;2329.60;;;;;;5054796;28;20112;-76
2021/09/17 01:24:37;;;;;;;16.17;6.35;;;614.60;2355.20;;;;;;5075117;28;20031;-76
2021/09/17 01:27:04;;;;;;;22.05;6.95;;;614.60;2432.00;;;;;;5076912;28;20055;-77
2021/09/17 01:29:30;;;;;;;18.25;7.28;;;614.60;2432.00;;;;;;5076197;28;20069;-78
2021/09/17 01:31:56;;;;;;;17.70;6.00;;;614.60;2432.00;;;;;;5076697;28;20029;-78
2021/09/17 01:34:23;;;;;;;14.88;6.60;;;614.60;2432.00;;;;;;5076940;28;20380;-77
2021/09/17 01:36:50;;;;;;;12.73;6.80;;;614.60;2432.00;;;;;;5058621;28;20483;-78
2021/09/17 01:39:18;;;;;;;15.52;6.20;;;614.70;2432.00;;;;;;5076481;28;20017;-78
2021/09/17 01:41:45;;;;;;;16.27;7.10;;;614.70;2432.00;;;;;;5076525;28;20033;-78
2021/09/17 01:44:10;;;;;;;16.20;6.13;;;614.60;2432.00;;;;;;5075985;28;20419;-78
2021/09/17 01:46:37;;;;;;;14.20;6.05;;;614.40;2432.00;;;;;;5058148;28;20045;-76
2021/09/17 01:49:03;;;;;;;13.88;6.40;;;614.40;2432.00;;;;;;5076193;28;20024;-78
2021/09/17 01:51:29;;;;;;;15.55;6.13;;;614.40;2432.00;;;;;;5076064;28;20538;-75
2021/09/17 01:53:55;;;;;;;11.05;6.63;;;614.40;2432.00;;;;;;5075742;28;20111;-75
2021/09/17 01:56:23;;;;;;;14.07;6.00;;;614.40;2432.00;;;;;;5076093;28;20051;-76
2021/09/17 01:58:49;;;;;;;16.27;5.35;;;614.50;2432.00;;;;;;5075733;28;20044;-78
2021/09/17 02:01:16;;;;;;;14.32;5.13;;;614.50;2432.00;;;;;;5075565;28;20064;-78
2021/09/17 02:03:41;;;;;;;13.13;6.03;;;614.50;2432.00;;;;;;5075810;28;20021;-78
2021/09/17 02:06:07;;;;;;;16.55;6.07;;;614.40;2432.00;;;;;;5075903;28;20499;-76
2021/09/17 02:08:33;;;;;;;13.02;6.15;;;614.40;2432.00;;;;;;5075734;28;20034;-76
2021/09/17 02:10:59;;;;;;;16.98;6.85;;;614.40;2432.00;;;;;;5075523;28;20081;-77
2021/09/17 02:13:24;;;;;;;12.35;6.18;;;614.40;2432.00;;;;;;5075482;28;20057;-78
2021/09/17 02:15:52;;;;;;;13.30;5.45;;;589.70;2432.00;;;;;;5075494;28;20043;-78
2021/09/17 02:18:19;;;;;;;18.83;6.20;;;589.50;2432.00;;;;;;5075814;28;20474;-79
2021/09/17 02:20:46;;;;;;;19.27;6.00;;;589.50;2432.00;;;;;;5075769;28;20121;-79
2021/09/17 02:23:12;;;;;;;15.40;5.15;;;589.40;2432.00;;;;;;5075732;28;20423;-79
2021/09/17 02:25:38;;;;;;;15.63;5.60;;;589.40;2432.00;;;;;;5057761;28;20048;-78
2021/09/17 02:28:04;;;;;;;18.60;6.90;;;589.40;2432.00;;;;;;5075367;28;20107;-78
2021/09/17 02:30:31;;;;;;;10.35;5.40;;;589.30;2432.00;;;;;;5057540;28;20132;-78
2021/09/17 02:32:57;;;;;;;19.55;6.63;;;589.20;2432.00;;;;;;5075633;28;20052;-76
2021/09/17 02:35:23;;;;;;;16.45;5.75;;;589.20;2432.00;;;;;;5056545;28;20021;-77
2021/09/17 02:37:49;;;;;;;23.40;5.40;;;589.10;2432.00;;;;;;5075011;28;20013;-77
2021/09/17 02:40:16;;;;;;;17.33;6.85;;;589.10;2432.00;;;;;;5056992;28;20055;-78
2021/09/17 02:42:42;;;;;;;14.32;6.10;;;589.10;2432.00;;;;;;5074798;28;20122;-77
2021/09/17 02:45:10;;;;;;;16.77;5.82;;;589.00;2432.00;;;;;;5075027;28;20074;-77
2021/09/17 02:47:37;;;;;;;24.05;7.25;;;589.00;2432.00;;;;;;5075400;28;20073;-78
2021/09/17 02:50:03;;;;;;;15.23;6.00;;;589.00;2432.00;;;;;;5075023;28;20025;-79
2021/09/17 02:52:29;;;;;;;12.75;5.25;;;589.00;2432.00;;;;;;5075007;28;20028;-78
2021/09/17 02:54:55;;;;;;;20.65;5.60;;;588.90;2432.00;;;;;;5074697;28;20064;-78
2021/09/17 02:57:21;;;;;;;14.02;5.65;;;588.90;2432.00;;;;;;5075113;28;20400;-77
2021/09/17 02:59:47;;;;;;;15.65;5.68;;;588.80;2432.00;;;;;;5074677;28;20020;-77
2021/09/17 03:02:14;;;;;;;16.52;6.60;;;564.10;2432.00;;;;;;5075317;28;20082;-77
2021/09/17 03:04:39;;;;;;;11.63;4.88;;;564.10;2432.00;;;;;;5075011;28;20051;-77
2021/09/17 03:07:05;;;;;;;16.33;6.45;;;564.10;2432.00;;;;;;5075033;28;20056;-76
2021/09/17 03:09:31;;;;;;;11.40;5.38;;;564.10;2432.00;;;;;;5074562;28;20040;-77
2021/09/17 03:11:57;;;;;;;12.90;6.45;;;564.10;2432.00;;;;;;5074546;28;20038;-76
2021/09/17 03:14:22;;;;;;;11.70;5.25;;;564.10;2432.00;;;;;;5074327;28;20412;-77
2021/09/17 03:16:49;;;;;;;16.00;5.53;;;564.00;2432.00;;;;;;5074348;28;20074;-78
2021/09/17 03:19:15;;;;;;;15.60;6.95;;;563.80;2432.00;;;;;;5074718;28;20048;-75
2021/09/17 03:21:41;;;;;;;13.95;6.25;;;563.80;2432.00;;;;;;5074212;28;20480;-78
2021/09/17 03:24:07;;;;;;;11.50;5.53;;;563.70;2432.00;;;;;;5074114;28;20047;-78
2021/09/17 03:26:33;;;;;;;17.95;6.35;;;563.70;2432.00;;;;;;5074425;28;20033;-76
2021/09/17 03:28:59;;;;;;;11.30;6.25;;;563.70;2432.00;;;;;;5073979;28;20028;-78
2021/09/17 03:31:25;;;;;;;14.70;5.97;;;563.70;2432.00;;;;;;5074293;28;20093;-76
2021/09/17 03:33:51;;;;;;;13.75;5.40;;;563.90;2432.00;;;;;;5074647;28;20461;-76
2021/09/17 03:36:16;;;;;;;14.63;6.03;;;563.70;2432.00;;;;;;5074414;28;20043;-76
2021/09/17 03:38:42;;;;;;;9.68;5.30;;;563.70;2432.00;;;;;;5074124;28;20027;-76
2021/09/17 03:41:08;;;;;;;16.58;6.50;;;563.80;2432.00;;;;;;5055868;28;20094;-78
2021/09/17 03:43:34;;;;;;;13.68;5.07;;;563.80;2432.00;;;;;;5073710;28;20016;-77
2021/09/17 03:46:00;;;;;;;13.40;6.15;;;563.80;2432.00;;;;;;5055979;28;20559;-77
2021/09/17 03:48:26;;;;;;;16.10;6.57;;;563.70;2432.00;;;;;;5073700;28;20040;-77
2021/09/17 03:50:51;;;;;;;12.93;6.38;;;563.70;2432.00;;;;;;5073986;28;20032;-78
2021/09/17 03:53:18;;;;;;;17.25;6.78;;;563.60;2432.00;;;;;;5073965;28;20025;-77
2021/09/17 03:55:43;;;;;;;19.13;6.97;;;563.60;2432.00;;;;;;5073872;28;20052;-77
2021/09/17 03:58:09;;;;;;;18.85;6.20;;;563.60;2432.00;;;;;;5073573;28;20019;-77
2021/09/17 04:00:36;;;;;;;13.93;5.38;;;563.60;2432.00;;;;;;5073682;28;20094;-77
2021/09/17 04:03:02;;;;;;;15.63;6.03;;;563.60;2432.00;;;;;;5055624;28;20028;-76
2021/09/17 04:05:28;;;;;;;15.90;6.28;;;563.60;2432.00;;;;;;5074110;28;20055;-77
2021/09/17 04:07:54;;;;;;;11.50;6.68;;;563.60;2432.00;;;;;;5073679;28;20063;-77
2021/09/17 04:10:20;;;;;;;16.92;6.47;;;563.60;2432.00;;;;;;5074251;28;20029;-76
2021/09/17 04:12:46;;;;;;;18.73;6.30;;;563.60;2432.00;;;;;;5056173;28;20025;-76
2021/09/17 04:15:12;;;;;;;17.42;5.88;;;563.60;2432.00;;;;;;5056068;28;20027;-76
2021/09/17 04:17:38;;;;;;;17.05;5.90;;;563.60;2432.00;;;;;;5073733;28;20032;-77
2021/09/17 04:20:05;;;;;;;11.60;5.85;;;563.60;2432.00;;;;;;5073947;28;20032;-77
2021/09/17 04:22:31;;;;;;;16.67;6.55;;;563.60;2432.00;;;;;;5073808;28;20066;-76
2021/09/17 04:24:57;;;;;;;12.20;6.10;;;563.70;2432.00;;;;;;5073540;28;20040;-77
2021/09/17 04:27:25;;;;;;;17.88;6.97;;;563.70;2432.00;;;;;;5073525;28;20091;-76
2021/09/17 04:29:51;;;;;;;12.55;5.22;;;563.60;2432.00;;;;;;5059160;28;20027;-77
2021/09/17 04:32:17;;;;;;;17.40;7.55;;;563.70;2432.00;;;;;;5078108;28;20029;-77
2021/09/17 04:34:42;;;;;;;12.57;5.28;;;563.70;2432.00;;;;;;5078258;28;20024;-78
2021/09/17 04:37:08;;;;;;;16.50;6.55;;;563.70;2432.00;;;;;;5060420;28;20025;-77
2021/09/17 04:39:34;;;;;;;13.65;6.28;;;563.70;2432.00;;;;;;5077380;28;20025;-77
2021/09/17 04:42:00;;;;;;;18.58;5.90;;;563.70;2432.00;;;;;;5074783;28;20074;-77
2021/09/17 04:44:26;;;;;;;15.63;6.53;;;563.70;2432.00;;;;;;5054866;28;20028;-76
2021/09/17 04:46:52;;;;;;;16.85;6.88;;;563.70;2432.00;;;;;;5073382;28;20024;-77
2021/09/17 04:49:18;;;;;;;13.90;5.50;;;563.70;2432.00;;;;;;5073397;28;20104;-77
2021/09/17 04:51:43;;;;;;;18.48;7.40;;;563.70;2432.00;;;;;;5073137;28;20095;-77
2021/09/17 04:54:10;;;;;;;18.27;6.05;;;563.70;2432.00;;;;;;5072524;28;20056;-76
2021/09/17 04:56:38;;;;;;;15.95;6.18;;;563.70;2432.00;;;;;;5054960;28;20032;-76
2021/09/17 04:59:04;;;;;;;18.88;8.63;;;563.70;2432.00;;;;;;5073933;28;20056;-78
2021/09/17 05:01:30;;;;;;;20.38;7.53;;;563.60;2432.00;;;;;;5076936;28;20040;-77
2021/09/17 05:03:56;;;;;;;13.38;7.30;;;563.60;2432.00;;;;;;5058722;28;20024;-76
2021/09/17 05:06:21;;;;;;;22.30;8.07;;;563.60;2432.00;;;;;;5076822;28;20024;-76
2021/09/17 05:08:47;;;;;;;20.08;8.35;;;563.60;2432.00;;;;;;5076752;28;20032;-79
2021/09/17 05:11:13;;;;;;;16.88;5.57;;;563.60;2432.00;;;;;;5076731;28;20102;-78
2021/09/17 05:13:38;;;;;;;17.40;6.57;;;563.60;2432.00;;;;;;5080003;28;20028;-78
2021/09/17 05:16:05;;;;;;;14.18;6.13;;;563.60;2432.00;;;;;;5080564;28;20046;-78
2021/09/17 05:18:30;;;;;;;16.67;6.70;;;563.60;2432.00;;;;;;5066708;28;20017;-77
2021/09/17 05:20:56;;;;;;;19.52;6.50;;;563.60;2432.00;;;;;;5086052;28;20100;-78
2021/09/17 05:23:23;;;;;;;14.32;6.13;;;563.60;2432.00;;;;;;5088316;28;20005;-78
2021/09/17 05:25:49;;;;;;;20.77;7.05;;;563.70;2432.00;;;;;;5086166;28;20032;-79
2021/09/17 05:28:15;;;;;;;14.50;7.70;;;563.70;2432.00;;;;;;5062600;28;20020;-78
2021/09/17 05:30:44;;;;;;;14.27;6.20;;;563.70;2432.00;;;;;;5076735;28;20115;-78
2021/09/17 05:33:11;;;;;;;22.52;8.18;;;563.80;2432.00;;;;;;5082780;28;20465;-77
2021/09/17 05:35:37;;;;;;;18.58;7.13;;;563.90;2432.00;;;;;;5081193;28;20049;-77
2021/09/17 05:38:02;;;;;;;17.10;6.95;;;563.90;2432.00;;;;;;5076424;28;20417;-76
2021/09/17 05:40:28;;;;;;;15.18;5.88;;;563.90;2432.00;;;;;;5076296;28;20036;-76
2021/09/17 05:42:54;;;;;;;14.48;6.72;;;563.90;2432.00;;;;;;5076337;28;20058;-77
2021/09/17 05:45:19;;;;;;;16.92;7.13;;;563.90;2432.00;;;;;;5058477;28;20082;-76
2021/09/17 05:47:45;;;;;;;11.13;5.85;;;563.90;2432.00;;;;;;5076784;28;20020;-76
2021/09/17 05:50:11;;;;;;;15.82;6.43;;;563.90;2432.00;;;;;;5076177;28;20021;-79
2021/09/17 05:52:38;;;;;;;15.98;7.95;;;563.90;2432.00;;;;;;5076282;28;20035;-77
2021/09/17 05:55:05;;;;;;;20.00;9.07;;;563.90;2432.00;;;;;;5075816;28;20454;-76
2021/09/17 05:57:31;;;;;;;15.57;8.52;;;563.80;2432.00;;;;;;5077533;28;20020;-76
2021/09/17 05:59:57;;;;;;;15.95;9.25;;;563.70;2432.00;;;;;;5058212;28;20127;-77
2021/09/17 06:02:23;;;;;;;14.80;7.50;;;563.70;2432.00;;;;;;5079712;28;20029;-78
2021/09/17 06:04:48;;;;;;;16.00;7.57;;;563.80;2432.00;;;;;;5060524;28;20048;-78
2021/09/17 06:07:14;;;;;;;15.15;6.88;;;563.80;2432.00;;;;;;5076212;28;20101;-79
2021/09/17 06:09:41;;;;;;;13.82;8.10;;;563.90;2432.00;;;;;;5076070;28;20166;-78
2021/09/17 06:12:07;;;;;;;21.67;8.40;;;563.90;2432.00;;;;;;5076191;28;20024;-79
2021/09/17 06:14:33;;;;;;;24.15;8.65;;;564.00;2432.00;;;;;;5076237;28;20099;-77
2021/09/17 06:16:59;;;;;;;15.70;8.27;;;564.10;2432.00;;;;;;5075666;28;20056;-77
2021/09/17 06:19:26;;;;;;;22.50;9.02;;;564.10;2432.00;;;;;;5075691;28;20025;-78
2021/09/17 06:21:51;;;;;;;22.02;9.30;;;588.80;2432.00;;;;;;5075791;28;20111;-80
2021/09/17 06:24:17;;;;;;;18.65;7.80;;;588.90;2432.00;;;;;;5080328;28;20102;-79
2021/09/17 06:26:43;;;;;;;20.90;8.68;;;589.00;2432.00;;;;;;5076411;28;20366;-78
2021/09/17 06:29:09;;;;;;;20.08;8.13;;;589.00;2432.00;;;;;;5076899;28;20027;-78
2021/09/17 06:31:36;;;;;;;20.60;8.27;;;589.10;2432.00;;;;;;5077745;28;20021;-76
2021/09/17 06:34:05;;;;;;;20.27;8.93;;;589.10;2432.00;;;;;;5076296;28;20095;-76
2021/09/17 06:36:32;;;;;;;15.05;8.13;;;589.30;2432.00;;;;;;5058473;28;20380;-80
2021/09/17 06:39:04;;;;;;;20.40;8.07;;;589.30;2432.00;;;;;;5075762;28;20021;-78
2021/09/17 06:41:31;;;;;;;18.60;7.67;;;589.30;2432.00;;;;;;5075500;28;20066;-80
2021/09/17 06:44:03;;;;;;;22.13;7.32;;;589.40;2432.00;;;;;;5080512;28;20301;-78
2021/09/17 06:46:29;;;;;;;19.13;6.18;;;589.40;2432.00;;;;;;5075348;28;20051;-78
2021/09/17 06:49:03;;;;;;;21.42;7.95;;;589.50;2432.00;;;;;;5075371;28;20481;-80
2021/09/17 06:51:30;;;;;;;17.83;7.30;;;589.50;2432.00;;;;;;5142228;22;20066;-80
2021/09/17 06:53:56;;;;;;;14.02;7.28;;;589.60;2432.00;;;;;;5076072;23;20046;-77
2021/09/17 06:56:23;;;;;;;14.90;6.78;;;589.70;2432.00;;;;;;5057147;28;20535;-77
2021/09/17 06:58:49;;;;;;;17.30;7.53;;;614.40;2432.00;;;;;;5075165;28;20017;-77
2021/09/17 07:01:15;;;;;;;26.00;7.65;;;614.50;2432.00;;;;;;5075082;28;20032;-77
2021/09/17 07:03:40;;;;;;;15.43;6.65;;;614.60;2432.00;;;;;;5056767;28;20037;-77
2021/09/17 07:06:06;;;;;;;17.80;5.93;;;614.70;2432.00;;;;;;5075099;28;20476;-78
2021/09/17 07:08:32;;;;;;;15.43;7.22;;;614.70;2432.00;;;;;;5056538;28;20024;-77
2021/09/17 07:10:58;;;;;;;16.98;7.78;;;614.80;2432.00;;;;;;5075134;28;20546;-79
2021/09/17 07:13:24;;;;;;;18.75;7.65;;;614.90;2432.00;;;;;;5074904;28;20016;-78
2021/09/17 07:15:50;;;;;;;16.17;6.07;;;615.00;2432.00;;;;;;5074906;28;20024;-78
2021/09/17 07:18:15;;;;;;;15.93;7.07;;;615.10;2406.40;;;;;;5074699;28;20040;-78
2021/09/17 07:20:41;;;;;;;17.10;6.03;;;615.30;2329.60;;;;;;5074611;28;20032;-78
2021/09/17 07:23:09;;;;;;;22.02;6.35;;;615.30;2380.80;;;;;;5074305;28;20064;-78
2021/09/17 07:25:41;;;;;;;20.63;7.55;;;615.30;2355.20;;;;;;5056219;28;20082;-80
2021/09/17 07:28:16;;;;;;;19.37;7.70;;;640.00;2329.60;;;;;;5056879;28;20440;-79
2021/09/17 07:30:42;;;;;;;18.63;5.80;;;640.20;2329.60;;;;;;5057438;28;20028;-79
2021/09/17 07:33:08;;;;;;;19.17;7.38;;;640.30;2278.40;;;;;;5075423;28;20369;-82
2021/09/17 07:35:34;;;;;;;17.52;7.60;;;640.40;2278.40;;;;;;5075537;28;20056;-78
2021/09/17 07:38:00;;;;;;;16.35;7.25;;;640.40;2227.20;;;;;;5075429;28;20028;-77
2021/09/17 07:40:28;;;;;;;13.27;7.00;;;640.60;2252.80;;;;;;5075597;28;20058;-76
2021/09/17 07:42:57;;;;;;;13.60;6.97;;;640.70;2201.60;;;;;;5074399;28;20452;-78
2021/09/17 07:45:24;;;;;;;18.35;7.90;;;640.80;2150.40;;;;;;5058035;28;20134;-78
2021/09/17 07:47:51;;;;;;;17.60;7.40;;;640.90;2099.20;;;;;;5075922;28;20066;-80
2021/09/17 07:50:17;;;;;;;19.00;7.18;;;665.70;2150.40;;;;;;5075357;28;20167;-77
2021/09/17 07:52:45;;;;;;;16.50;6.25;;;665.80;2099.20;;;;;;5075677;28;20108;-78
2021/09/17 07:55:11;;;;;;;14.38;6.95;;;666.00;2022.40;;;;;;5074428;28;20024;-78
2021/09/17 07:57:37;;;;;;;14.07;5.97;;;666.10;2073.60;;;;;;5074283;28;20021;-77
2021/09/17 08:00:05;;;;;;;11.40;7.68;;;666.20;2048.00;;;;;;5039995;28;20060;-79
2021/09/17 08:02:31;;;;;;;20.05;7.50;;;666.50;1996.80;;;;;;5074774;28;20071;-82
2021/09/17 08:04:57;;;;;;;20.77;7.18;;;666.50;1971.20;;;;;;5057352;28;20377;-80
2021/09/17 08:07:22;;;;;;;10.82;5.57;;;691.30;1945.60;;;;;;5075189;28;20020;-79
2021/09/17 08:09:48;;;;;;;21.75;7.25;;;691.40;1894.40;;;;;;5073117;28;20044;-79
2021/09/17 08:12:14;;;;;;;19.17;8.18;;;691.60;1894.40;;;;;;5073053;28;20112;-79
2021/09/17 08:14:39;;;;;;;15.32;6.00;;;691.70;1868.80;;;;;;5074282;28;20020;-78
2021/09/17 08:17:05;;;;;;;17.45;7.30;;;691.70;1843.20;;;;;;5074179;28;20051;-78
2021/09/17 08:19:31;;;;;;;11.48;7.25;;;691.80;1817.60;;;;;;5056390;28;20103;-79
2021/09/17 08:21:58;;;;;;;18.58;6.63;;;692.00;1843.20;;;;;;5073985;28;20498;-79
2021/09/17 08:24:24;;;;;;;20.77;6.88;;;692.10;1894.40;;;;;;5075063;28;20017;-78
2021/09/17 08:26:52;;;;;;;17.55;6.97;;;716.80;1894.40;;;;;;5074362;28;20060;-78
2021/09/17 08:29:19;;;;;;;13.40;7.22;;;716.90;1843.20;;;;;;5073828;28;20016;-79
2021/09/17 08:31:46;;;;;;;14.88;7.68;;;717.00;1792.00;;;;;;5074523;28;20111;-77
2021/09/17 08:34:11;;;;;;;14.45;7.15;;;717.20;1817.60;;;;;;5077354;28;20035;-77
2021/09/17 08:36:37;;;;;;;16.75;6.47;;;717.30;1817.60;;;;;;5078298;28;20115;-78
2021/09/17 08:39:12;;;;;;;16.85;6.30;;;717.30;1792.00;;;;;;5080483;28;20040;-82
2021/09/17 08:41:50;;;;;;;16.90;7.25;;;717.40;1766.40;;;;;;5067046;28;20037;-79
2021/09/17 08:44:18;;;;;;;11.35;6.50;;;717.50;1766.40;;;;;;5066319;28;20028;-79
2021/09/17 08:46:44;;;;;;;18.10;7.22;;;717.50;1740.80;;;;;;5060756;28;20024;-79
2021/09/17 08:49:11;;;;;;;16.85;9.05;;;717.50;1715.20;;;;;;5077130;28;20051;-79
2021/09/17 08:51:47;;;;;;;24.17;9.57;;;717.40;1740.80;;;;;;5067475;28;20025;-80
2021/09/17 08:54:12;;;;;;;16.55;6.57;;;717.50;1715.20;;;;;;5065485;28;20059;-79
2021/09/17 08:56:38;;;;;;;12.98;7.45;;;717.50;1715.20;;;;;;5068721;28;20025;-81
2021/09/17 08:59:04;;;;;;;20.52;8.13;;;717.50;1740.80;;;;;;5067134;28;20028;-78
2021/09/17 09:01:33;;;;;;;17.88;7.47;;;717.50;1740.80;;;;;;5079255;28;20029;-77
2021/09/17 09:04:06;;;;;;;16.77;7.88;;;717.60;1740.80;;;;;;5081426;28;20044;-79
2021/09/17 09:06:37;;;;;;;26.23;8.25;;;717.60;1715.20;;;;;;5076142;28;20032;-79
2021/09/17 09:09:08;;;;;;;11.60;6.10;;;717.60;1689.60;;;;;;5060814;28;20021;-79
2021/09/17 09:11:35;;;;;;;17.80;7.97;;;717.50;1689.60;;;;;;5077364;28;20024;-78
2021/09/17 09:14:06;;;;;;;20.02;7.70;;;717.40;1689.60;;;;;;5078108;28;20036;-77
2021/09/17 09:16:37;;;;;;;13.77;6.18;;;717.30;1689.60;;;;;;5060716;28;20036;-79
2021/09/17 09:19:33;;;;;;;17.15;7.72;;;717.30;1689.60;;;;;;5061798;28;20025;-79
2021/09/17 09:22:02;;;;;;;12.65;6.45;;;717.30;1715.20;;;;;;5078817;28;20119;-79
2021/09/17 09:24:29;;;;;;;17.60;7.13;;;717.20;1715.20;;;;;;5076663;28;20020;-79
2021/09/17 09:27:10;;;;;;;17.30;6.10;;;717.20;1715.20;;;;;;5060319;28;20047;-81
2021/09/17 09:29:37;;;;;;;13.73;6.53;;;717.20;1715.20;;;;;;5059910;28;20036;-79
2021/09/17 09:32:03;;;;;;;24.83;7.78;;;717.00;1715.20;;;;;;5059880;28;20024;-80
2021/09/17 09:34:51;;;;;;;13.88;7.47;;;717.00;1715.20;;;;;;5060789;28;20434;-79
2021/09/17 09:37:20;;;;;;;16.90;6.72;;;717.00;1740.80;;;;;;5076586;28;20033;-79
2021/09/17 09:40:06;;;;;;;14.30;6.75;;;717.00;1740.80;;;;;;5079006;28;20021;-79
2021/09/17 09:42:37;;;;;;;13.80;7.75;;;717.00;1740.80;;;;;;5078420;28;20021;-78
2021/09/17 09:45:16;;;;;;;17.42;7.05;;;717.00;1740.80;;;;;;5078266;28;20027;-78
2021/09/17 09:47:45;;;;;;;15.93;7.72;;;717.00;1740.80;;;;;;5080232;28;20038;-80
2021/09/17 09:50:26;;;;;;;11.07;6.72;;;717.00;1740.80;;;;;;5084070;28;20048;-80
2021/09/17 09:52:54;;;;;;;21.05;9.18;;;717.20;1715.20;;;;;;5081368;28;20455;-80
2021/09/17 09:55:20;;;;;;;19.45;9.13;;;717.20;1715.20;;;;;;5062277;28;20024;-81
2021/09/17 09:57:46;;;;;;;15.07;7.15;;;717.30;1715.20;;;;;;5078163;28;20031;-79
2021/09/17 10:00:13;;;;;;;20.65;7.75;;;717.30;1689.60;;;;;;5060313;28;20029;-79
2021/09/17 10:02:45;;;;;;;14.32;6.68;;;717.30;1715.20;;;;;;5059997;28;20032;-81
2021/09/17 10:05:13;;;;;;;18.60;8.38;;;717.40;1689.60;;;;;;5059717;28;20029;-81
2021/09/17 10:07:40;;;;;;;17.80;7.85;;;717.50;1689.60;;;;;;5058542;28;20032;-78
2021/09/17 10:10:10;;;;;;;18.50;7.78;;;717.60;1689.60;;;;;;5061301;28;20479;-79
2021/09/17 10:12:36;;;;;;;16.10;7.40;;;717.70;1638.40;;;;;;5060481;28;20028;-80
2021/09/17 10:15:03;;;;;;;12.73;6.93;;;717.60;1664.00;;;;;;5076480;28;20024;-81
2021/09/17 10:17:35;;;;;;;15.57;7.53;;;717.70;1664.00;;;;;;5077951;28;20029;-80
2021/09/17 10:20:06;;;;;;;12.65;6.40;;;742.40;1689.60;;;;;;5083615;28;20028;-80
2021/09/17 10:22:50;;;;;;;11.98;6.10;;;742.40;1664.00;;;;;;5062759;28;20095;-79
2021/09/17 10:25:23;;;;;;;15.23;7.13;;;742.50;1638.40;;;;;;5062843;28;20427;-79
2021/09/17 10:28:06;;;;;;;16.70;7.38;;;742.60;1664.00;;;;;;5079307;28;20428;-80
2021/09/17 10:30:34;;;;;;;23.10;9.55;;;742.60;1689.60;;;;;;5078378;28;20024;-81
2021/09/17 10:33:00;;;;;;;18.05;8.35;;;742.60;1715.20;;;;;;5077621;28;20020;-80
2021/09/17 10:35:31;;;;;;;22.67;8.95;;;742.70;1689.60;;;;;;5058691;28;20442;-81
2021/09/17 10:38:06;;;;;;;15.38;6.38;;;742.80;1715.20;;;;;;5076323;28;20020;-81
2021/09/17 10:40:44;;;;;;;14.32;5.90;;;742.80;1664.00;;;;;;5075747;28;20082;-80
2021/09/17 10:43:09;;;;;;;15.32;7.10;;;742.80;1587.20;;;;;;5058513;28;20024;-77
2021/09/17 10:46:05;;;;;;;16.83;6.82;;;742.90;1612.80;;;;;;5076612;28;20046;-78
2021/09/17 10:48:47;;;;;;;12.13;6.57;;;743.00;1664.00;;;;;;5059014;28;20075;-82
2021/09/17 10:51:34;;;;;;;11.07;6.53;;;743.20;1587.20;;;;;;5075967;28;20472;-81
2021/09/17 10:54:10;;;;;;;13.98;6.85;;;768.10;1510.40;;;;;;5075325;28;20052;-80
2021/09/17 10:56:48;;;;;;;14.85;6.55;;;768.30;1510.40;;;;;;5073279;28;20029;-81
2021/09/17 10:59:21;;;;;;;7.72;5.68;;;768.60;1459.20;;;;;;5073872;28;20506;-78
2021/09/17 11:02:06;;;;;;;12.48;5.78;;;768.80;1433.60;;;;;;5057259;28;20466;-78
2021/09/17 11:04:36;;;;;;;13.32;5.97;;;793.70;1408.00;;;;;;5075284;28;20036;-77
2021/09/17 11:07:17;;;;;;;10.27;5.53;;;793.90;1382.40;;;;;;5057360;28;20028;-77
2021/09/17 11:09:50;;;;;;;12.25;5.15;;;794.30;1433.60;;;;;;5075093;28;20024;-80
2021/09/17 11:12:21;;;;;;;9.50;4.78;;;794.50;1408.00;;;;;;5075321;28;20128;-79
2021/09/17 11:15:19;;;;;;;10.23;6.43;;;819.30;1331.20;;;;;;5057339;28;20028;-79
2021/09/17 11:17:50;;;;;;;13.52;5.53;;;819.60;1331.20;;;;;;5080668;28;20487;-81
2021/09/17 11:20:26;;;;;;;12.93;5.60;;;819.80;1280.00;;;;;;5058309;28;20399;-78
2021/09/17 11:23:01;;;;;;;12.95;4.40;;;819.90;1280.00;;;;;;5076292;28;20020;-79
2021/09/17 11:25:28;;;;;;;8.15;4.65;;;844.80;1254.40;;;;;;5075380;28;20040;-77
2021/09/17 11:27:55;;;;;;;12.43;6.03;;;845.00;1254.40;;;;;;5075255;28;20074;-79
2021/09/17 11:30:22;;;;;;;7.78;4.93;;;845.20;1228.80;;;;;;5075661;28;20123;-80
2021/09/17 11:32:48;;;;;;;12.52;5.28;;;845.40;1228.80;;;;;;5057585;28;20070;-79
2021/09/17 11:35:15;;;;;;;9.07;5.57;;;845.40;1203.20;;;;;;5057508;28;20087;-78
2021/09/17 11:37:52;;;;;;;7.95;5.25;;;845.20;1203.20;;;;;;5075346;28;20028;-78
2021/09/17 11:40:17;;;;;;;9.00;4.78;;;845.20;1228.80;;;;;;5074861;28;20544;-78
2021/09/17 11:42:44;;;;;;;9.27;5.90;;;845.00;1203.20;;;;;;5056176;28;20101;-78
2021/09/17 11:45:12;;;;;;;14.50;5.15;;;844.90;1228.80;;;;;;5074414;28;20341;-77
2021/09/17 11:47:38;;;;;;;9.50;5.03;;;844.90;1203.20;;;;;;5074407;28;20024;-77
2021/09/17 11:50:13;;;;;;;5.93;4.22;;;844.80;1177.60;;;;;;5073948;28;20350;-79
2021/09/17 11:52:50;;;;;;;7.93;4.63;;;820.00;1177.60;;;;;;5074589;28;20404;-77
2021/09/17 11:55:28;;;;;;;7.30;4.85;;;819.90;1177.60;;;;;;5074232;28;20059;-79
2021/09/17 11:57:58;;;;;;;11.13;4.50;;;819.80;1203.20;;;;;;5073828;28;20036;-77
2021/09/17 12:00:27;;;;;;;10.38;4.07;;;819.70;1203.20;;;;;;5056074;28;20051;-78
2021/09/17 12:03:05;;;;;;;10.25;4.55;;;819.60;1177.60;;;;;;5074104;28;20074;-78
2021/09/17 12:05:32;;;;;;;7.47;4.40;;;819.40;1203.20;;;;;;5072841;28;20031;-77
2021/09/17 12:07:59;;;;;;;10.82;5.07;;;794.50;1228.80;;;;;;5074050;28;20027;-77
2021/09/17 12:10:32;;;;;;;8.40;4.70;;;794.50;1228.80;;;;;;5074052;28;20074;-80
2021/09/17 12:13:03;;;;;;;13.63;5.53;;;794.20;1280.00;;;;;;5055253;28;20028;-81